createdAt,value
2019-03-19T00:01:42.305Z,6.07
2019-03-19T00:04:30.139Z,6.01
2019-03-19T00:07:17.561Z,5.97
2019-03-19T00:10:07.902Z,5.95
2019-03-19T00:12:54.670Z,5.91
2019-03-19T00:15:41.942Z,5.93
2019-03-19T00:18:29.093Z,5.98
2019-03-19T00:21:16.619Z,6.01
2019-03-19T00:24:04.251Z,6.01
2019-03-19T00:26:51.366Z,6.02
2019-03-19T00:29:39.099Z,6.01
2019-03-19T00:32:26.930Z,5.99
2019-03-19T00:35:14.457Z,5.96
2019-03-19T00:38:02.291Z,5.95
2019-03-19T00:40:49.407Z,5.96
2019-03-19T00:43:36.730Z,5.84
2019-03-19T00:46:24.060Z,5.80
2019-03-19T00:49:11.068Z,5.85
2019-03-19T00:51:58.496Z,5.91
2019-03-19T00:54:46.020Z,5.59
2019-03-19T00:57:33.033Z,5.72
2019-03-19T01:00:21.355Z,5.82
2019-03-19T01:03:08.294Z,5.86
2019-03-19T01:05:55.512Z,5.91
2019-03-19T01:08:42.937Z,5.89
2019-03-19T01:11:30.667Z,5.91
2019-03-19T01:14:18.190Z,5.88
2019-03-19T01:17:06.023Z,5.87
2019-03-19T01:19:53.245Z,5.76
2019-03-19T01:22:40.978Z,5.79
2019-03-19T01:25:28.502Z,5.84
2019-03-19T01:28:16.232Z,5.83
2019-03-19T01:31:03.636Z,5.83
2019-03-19T01:33:50.875Z,5.79
2019-03-19T01:36:38.709Z,5.77
2019-03-19T01:39:25.825Z,5.75
2019-03-19T01:42:13.357Z,5.75
2019-03-19T01:45:01.085Z,5.73
2019-03-19T01:47:48.712Z,5.70
2019-03-19T01:50:36.136Z,5.69
2019-03-19T01:53:23.428Z,5.66
2019-03-19T01:56:11.190Z,5.57
2019-03-19T01:58:58.637Z,5.54
2019-03-19T02:01:46.350Z,5.39
2019-03-19T02:04:34.076Z,5.53
2019-03-19T02:07:21.604Z,5.46
2019-03-19T02:10:13.959Z,5.47
2019-03-19T02:13:01.369Z,5.49
2019-03-19T02:15:48.892Z,5.51
2019-03-19T02:18:36.420Z,5.57
2019-03-19T02:21:23.537Z,5.55
2019-03-19T02:24:11.066Z,5.55
2019-03-19T02:26:58.589Z,5.55
2019-03-19T02:29:46.218Z,5.56
2019-03-19T02:32:33.643Z,5.51
2019-03-19T02:35:20.802Z,5.51
2019-03-19T02:38:08.505Z,5.55
2019-03-19T02:40:56.326Z,5.56
2019-03-19T02:43:43.853Z,5.55
2019-03-19T02:46:31.487Z,5.56
2019-03-19T02:49:19.627Z,5.53
2019-03-19T02:52:07.266Z,5.53
2019-03-19T02:54:54.877Z,5.54
2019-03-19T02:57:42.612Z,5.49
2019-03-19T03:00:30.554Z,5.41
2019-03-19T03:03:17.977Z,5.39
2019-03-19T03:06:05.922Z,5.36
2019-03-19T03:08:53.344Z,5.26
2019-03-19T03:11:40.974Z,5.24
2019-03-19T03:14:28.496Z,5.18
2019-03-19T03:17:16.240Z,5.15
2019-03-19T03:20:05.385Z,5.14
2019-03-19T03:22:53.034Z,5.14
2019-03-19T03:25:40.446Z,5.14
2019-03-19T03:28:27.970Z,5.13
2019-03-19T03:31:15.744Z,5.14
2019-03-19T03:34:03.244Z,5.13
2019-03-19T03:36:50.448Z,5.08
2019-03-19T03:39:38.280Z,5.13
2019-03-19T03:42:26.128Z,5.13
2019-03-19T03:45:18.131Z,5.11
2019-03-19T03:48:05.982Z,5.03
2019-03-19T03:50:53.811Z,5.04
2019-03-19T03:53:42.162Z,5.10
2019-03-19T03:56:29.790Z,5.06
2019-03-19T03:59:17.617Z,5.06
2019-03-19T04:02:05.253Z,5.06
2019-03-19T04:04:52.480Z,4.93
2019-03-19T04:07:40.202Z,5.00
2019-03-19T04:10:27.838Z,4.99
2019-03-19T04:13:15.766Z,5.04
2019-03-19T04:16:03.717Z,5.02
2019-03-19T04:18:51.353Z,5.00
2019-03-19T04:21:38.961Z,4.97
2019-03-19T04:24:27.003Z,5.00
2019-03-19T04:27:16.305Z,4.98
2019-03-19T04:30:05.967Z,4.98
2019-03-19T04:32:53.715Z,4.93
2019-03-19T04:35:42.257Z,5.01
2019-03-19T04:38:30.057Z,5.01
2019-03-19T04:41:17.482Z,5.01
2019-03-19T04:44:04.807Z,5.04
2019-03-19T04:46:52.330Z,5.10
2019-03-19T04:49:39.958Z,5.10
2019-03-19T04:52:27.589Z,5.09
2019-03-19T04:55:17.281Z,5.04
2019-03-19T04:58:04.893Z,5.03
2019-03-19T05:00:52.212Z,5.05
2019-03-19T05:03:39.847Z,5.04
2019-03-19T05:06:27.573Z,5.01
2019-03-19T05:09:15.101Z,5.00
2019-03-19T05:12:02.731Z,4.93
2019-03-19T05:14:50.360Z,4.91
2019-03-19T05:17:37.783Z,4.87
2019-03-19T05:20:25.517Z,4.80
2019-03-19T05:23:13.465Z,4.78
2019-03-19T05:26:01.288Z,4.73
2019-03-19T05:28:49.220Z,4.73
2019-03-19T05:31:36.850Z,4.72
2019-03-19T05:34:24.478Z,4.74
2019-03-19T05:37:12.251Z,4.78
2019-03-19T05:39:59.530Z,4.77
2019-03-19T05:42:47.057Z,4.77
2019-03-19T05:45:35.097Z,4.69
2019-03-19T05:48:22.628Z,4.69
2019-03-19T05:51:10.146Z,4.68
2019-03-19T05:53:58.086Z,4.65
2019-03-19T05:56:45.918Z,4.60
2019-03-19T05:59:33.537Z,4.66
2019-03-19T06:02:21.271Z,4.68
2019-03-19T06:05:11.341Z,4.76
2019-03-19T06:07:58.576Z,4.78
2019-03-19T06:10:45.795Z,4.78
2019-03-19T06:13:33.629Z,4.81
2019-03-19T06:16:21.360Z,4.81
2019-03-19T06:19:09.407Z,4.80
2019-03-19T06:21:58.359Z,4.78
2019-03-19T06:24:45.987Z,4.71
2019-03-19T06:27:33.409Z,4.71
2019-03-19T06:30:22.569Z,4.74
2019-03-19T06:33:09.796Z,4.76
2019-03-19T06:35:57.322Z,4.62
2019-03-19T06:38:44.852Z,4.64
2019-03-19T06:41:31.860Z,4.75
2019-03-19T06:44:20.104Z,4.90
2019-03-19T06:47:07.733Z,4.88
2019-03-19T06:49:55.262Z,4.88
2019-03-19T06:52:42.902Z,4.54
2019-03-19T06:55:30.209Z,4.49
2019-03-19T06:58:18.123Z,4.74
2019-03-19T07:01:06.752Z,4.83
2019-03-19T07:03:54.326Z,5.00
2019-03-19T07:06:41.956Z,5.04
2019-03-19T07:09:29.278Z,5.21
2019-03-19T07:12:16.401Z,5.31
2019-03-19T07:15:04.126Z,5.49
2019-03-19T07:17:52.165Z,5.64
2019-03-19T07:20:39.694Z,5.75
2019-03-19T07:23:27.114Z,5.93
2019-03-19T07:26:14.850Z,6.14
2019-03-19T07:29:02.370Z,6.33
2019-03-19T07:31:50.001Z,6.49
2019-03-19T07:34:37.630Z,6.57
2019-03-19T07:37:25.161Z,6.23
2019-03-19T07:40:23.467Z,6.25
2019-03-19T07:43:11.067Z,6.79
2019-03-19T07:45:58.576Z,7.22
2019-03-19T07:48:46.252Z,7.61
2019-03-19T07:51:33.805Z,7.96
2019-03-19T07:54:21.168Z,8.29
2019-03-19T07:57:08.488Z,8.35
2019-03-19T07:59:56.318Z,8.54
2019-03-19T08:02:43.849Z,9.02
2019-03-19T08:05:33.425Z,9.51
2019-03-19T08:08:20.340Z,9.83
2019-03-19T08:11:07.762Z,9.93
2019-03-19T08:13:55.602Z,10.07
2019-03-19T08:16:42.717Z,10.02
2019-03-19T08:19:30.138Z,9.76
2019-03-19T08:22:17.252Z,10.09
2019-03-19T08:25:08.833Z,10.39
2019-03-19T08:27:56.503Z,10.61
2019-03-19T08:30:43.847Z,10.86
2019-03-19T08:33:30.941Z,10.81
2019-03-19T08:36:18.878Z,10.96
2019-03-19T08:39:07.325Z,11.10
2019-03-19T08:41:54.858Z,11.54
2019-03-19T08:44:42.179Z,11.73
2019-03-19T08:47:29.891Z,12.09
2019-03-19T08:50:21.430Z,12.41
2019-03-19T08:53:08.952Z,12.57
2019-03-19T08:55:56.376Z,12.67
2019-03-19T08:58:43.672Z,12.52
2019-03-19T09:01:31.123Z,12.49
2019-03-19T09:04:18.648Z,12.35
2019-03-19T09:07:06.485Z,12.62
2019-03-19T09:09:54.111Z,13.02
2019-03-19T09:12:41.332Z,13.01
2019-03-19T09:15:29.718Z,13.30
2019-03-19T09:18:16.918Z,13.36
2019-03-19T09:21:04.421Z,13.41
2019-03-19T09:23:51.641Z,13.46
2019-03-19T09:26:39.271Z,12.99
2019-03-19T09:29:26.391Z,12.55
2019-03-19T09:32:13.816Z,12.00
2019-03-19T09:35:01.446Z,12.01
2019-03-19T09:37:57.643Z,11.50
2019-03-19T09:40:37.629Z,11.38
2019-03-19T09:43:25.248Z,11.04
2019-03-19T09:46:12.772Z,11.81
2019-03-19T09:49:00.595Z,11.87
2019-03-19T09:51:48.954Z,11.58
2019-03-19T09:54:36.069Z,12.02
2019-03-19T09:57:23.597Z,12.42
2019-03-19T10:00:19.317Z,12.53
2019-03-19T10:03:07.047Z,12.59
2019-03-19T10:05:54.472Z,13.01
2019-03-19T10:08:42.205Z,13.58
2019-03-19T10:11:29.833Z,14.09
2019-03-19T10:14:17.154Z,14.27
2019-03-19T10:17:04.688Z,14.45
2019-03-19T10:19:52.105Z,14.10
2019-03-19T10:22:39.327Z,14.04
2019-03-19T10:25:26.754Z,14.00
2019-03-19T10:28:14.378Z,13.98
2019-03-19T10:31:01.599Z,13.95
2019-03-19T10:33:49.431Z,13.97
2019-03-19T10:36:37.465Z,14.15
2019-03-19T10:39:25.094Z,14.35
2019-03-19T10:42:12.521Z,14.66
2019-03-19T10:45:00.335Z,14.46
2019-03-19T10:47:47.989Z,14.59
2019-03-19T10:50:35.237Z,14.01
2019-03-19T10:53:22.931Z,14.31
2019-03-19T10:56:10.868Z,14.51
2019-03-19T10:58:58.292Z,14.44
2019-03-19T11:01:45.920Z,14.70
2019-03-19T11:04:33.612Z,14.71
2019-03-19T11:07:21.818Z,13.80
2019-03-19T11:10:11.096Z,13.64
2019-03-19T11:12:58.848Z,13.51
2019-03-19T11:15:46.835Z,13.59
2019-03-19T11:18:34.462Z,13.48
2019-03-19T11:21:22.193Z,13.37
2019-03-19T11:24:09.309Z,13.54
2019-03-19T11:26:56.938Z,13.65
2019-03-19T11:29:44.461Z,13.46
2019-03-19T11:32:31.787Z,13.52
2019-03-19T11:35:19.429Z,13.56
2019-03-19T11:38:08.167Z,13.61
2019-03-19T11:40:55.699Z,13.98
2019-03-19T11:43:43.131Z,14.44
2019-03-19T11:46:30.810Z,14.69
2019-03-19T11:49:18.525Z,14.92
2019-03-19T11:52:06.108Z,15.10
2019-03-19T11:54:53.432Z,15.30
2019-03-19T11:57:41.454Z,15.35
2019-03-19T12:00:32.688Z,15.60
2019-03-19T12:03:21.642Z,15.90
2019-03-19T12:06:08.863Z,15.73
2019-03-19T12:08:56.598Z,15.92
2019-03-19T12:11:44.119Z,16.16
2019-03-19T12:14:31.752Z,16.23
2019-03-19T12:17:19.173Z,15.93
2019-03-19T12:20:12.130Z,15.76
2019-03-19T12:22:59.555Z,15.51
2019-03-19T12:25:47.078Z,15.07
2019-03-19T12:28:39.590Z,14.56
2019-03-19T12:31:23.357Z,14.56
2019-03-19T12:34:11.202Z,14.75
2019-03-19T12:36:58.629Z,14.45
2019-03-19T12:39:46.626Z,14.42
2019-03-19T12:42:33.982Z,14.30
2019-03-19T12:45:22.299Z,14.10
2019-03-19T12:48:09.747Z,14.08
2019-03-19T12:50:57.296Z,14.14
2019-03-19T12:53:44.799Z,14.26
2019-03-19T12:56:32.430Z,14.22
2019-03-19T12:59:20.728Z,14.28
2019-03-19T13:02:08.610Z,14.36
2019-03-19T13:04:56.033Z,14.34
2019-03-19T13:07:43.671Z,14.27
2019-03-19T13:10:31.298Z,14.42
2019-03-19T13:13:18.562Z,14.35
2019-03-19T13:16:06.050Z,14.41
2019-03-19T13:18:53.193Z,14.64
2019-03-19T13:21:41.093Z,14.78
2019-03-19T13:24:28.844Z,14.70
2019-03-19T13:27:15.936Z,14.78
2019-03-19T13:30:03.876Z,14.79
2019-03-19T13:32:51.503Z,14.75
2019-03-19T13:35:39.469Z,14.45
2019-03-19T13:38:26.556Z,14.55
2019-03-19T13:41:14.288Z,14.47
2019-03-19T13:44:01.611Z,14.29
2019-03-19T13:46:49.443Z,14.25
2019-03-19T13:49:36.872Z,14.36
2019-03-19T13:52:24.500Z,14.17
2019-03-19T13:55:15.205Z,14.24
2019-03-19T13:58:04.158Z,14.26
2019-03-19T14:00:55.833Z,14.28
2019-03-19T14:03:40.546Z,14.33
2019-03-19T14:06:28.374Z,13.61
2019-03-19T14:09:15.902Z,13.51
2019-03-19T14:12:03.616Z,13.69
2019-03-19T14:14:51.880Z,13.80
2019-03-19T14:17:39.402Z,13.85
2019-03-19T14:20:26.622Z,13.67
2019-03-19T14:23:15.275Z,13.48
2019-03-19T14:26:02.907Z,13.59
2019-03-19T14:28:50.647Z,13.69
2019-03-19T14:31:38.062Z,13.60
2019-03-19T14:34:25.484Z,13.51
2019-03-19T14:37:13.216Z,13.47
2019-03-19T14:40:00.640Z,13.41
2019-03-19T14:42:48.885Z,13.42
2019-03-19T14:45:36.274Z,13.36
2019-03-19T14:48:23.936Z,13.40
2019-03-19T14:51:11.462Z,13.36
2019-03-19T14:53:59.501Z,13.33
2019-03-19T14:56:46.926Z,13.28
2019-03-19T14:59:34.349Z,13.27
2019-03-19T15:02:22.288Z,13.39
2019-03-19T15:05:10.837Z,13.39
2019-03-19T15:07:58.261Z,13.37
2019-03-19T15:10:45.892Z,13.33
2019-03-19T15:13:33.007Z,13.23
2019-03-19T15:16:20.738Z,13.20
2019-03-19T15:19:08.572Z,13.08
2019-03-19T15:21:56.102Z,13.01
2019-03-19T15:24:43.628Z,12.95
2019-03-19T15:27:30.653Z,13.00
2019-03-19T15:30:19.339Z,13.03
2019-03-19T15:33:07.028Z,13.02
2019-03-19T15:35:58.756Z,12.98
2019-03-19T15:38:46.586Z,12.94
2019-03-19T15:41:34.314Z,12.89
2019-03-19T15:44:22.045Z,12.90
2019-03-19T15:47:09.470Z,12.90
2019-03-19T15:49:56.792Z,12.84
2019-03-19T15:52:44.627Z,12.34
2019-03-19T15:55:31.952Z,12.26
2019-03-19T15:58:19.681Z,12.15
2019-03-19T16:01:07.307Z,12.30
2019-03-19T16:03:54.426Z,12.32
2019-03-19T16:06:42.054Z,12.24
2019-03-19T16:09:29.378Z,12.05
2019-03-19T16:12:17.121Z,12.13
2019-03-19T16:15:08.425Z,12.23
2019-03-19T16:17:55.853Z,12.25
2019-03-19T16:20:43.584Z,12.20
2019-03-19T16:23:31.104Z,12.15
2019-03-19T16:26:18.735Z,12.02
2019-03-19T16:29:06.466Z,11.86
2019-03-19T16:31:54.094Z,11.87
2019-03-19T16:34:41.523Z,11.91
2019-03-19T16:37:30.480Z,11.98
2019-03-19T16:40:21.959Z,11.95
2019-03-19T16:43:10.757Z,11.92
2019-03-19T16:45:58.280Z,11.96
2019-03-19T16:48:45.910Z,11.97
2019-03-19T16:51:33.440Z,11.98
2019-03-19T16:54:20.978Z,11.91
2019-03-19T16:57:08.615Z,11.89
2019-03-19T16:59:55.912Z,11.91
2019-03-19T17:02:43.631Z,11.85
2019-03-19T17:05:31.481Z,11.85
2019-03-19T17:08:19.013Z,11.79
2019-03-19T17:11:06.349Z,11.74
2019-03-19T17:13:54.166Z,11.72
2019-03-19T17:16:42.100Z,11.59
2019-03-19T17:19:29.524Z,11.49
2019-03-19T17:22:16.943Z,11.34
2019-03-19T17:25:06.663Z,11.37
2019-03-19T17:27:54.660Z,11.41
2019-03-19T17:30:42.391Z,11.40
2019-03-19T17:33:30.021Z,11.37
2019-03-19T17:36:16.965Z,11.32
2019-03-19T17:39:07.123Z,11.27
2019-03-19T17:41:54.760Z,11.24
2019-03-19T17:44:42.427Z,11.16
2019-03-19T17:47:30.212Z,11.08
2019-03-19T17:50:20.715Z,11.00
2019-03-19T17:53:08.236Z,10.91
2019-03-19T17:55:55.968Z,10.86
2019-03-19T17:58:43.625Z,10.81
2019-03-19T18:01:31.433Z,10.79
2019-03-19T18:04:19.573Z,10.75
2019-03-19T18:07:06.995Z,10.65
2019-03-19T18:09:54.421Z,10.59
2019-03-19T18:12:42.253Z,10.54
2019-03-19T18:15:29.681Z,10.56
2019-03-19T18:18:17.619Z,10.53
2019-03-19T18:21:05.041Z,10.51
2019-03-19T18:23:52.666Z,10.47
2019-03-19T18:26:40.401Z,10.37
2019-03-19T18:29:27.831Z,10.33
2019-03-19T18:32:15.557Z,10.29
2019-03-19T18:35:02.780Z,10.23
2019-03-19T18:37:50.639Z,10.15
2019-03-19T18:40:38.005Z,10.08
2019-03-19T18:43:25.149Z,9.97
2019-03-19T18:46:12.784Z,9.92
2019-03-19T18:49:00.306Z,9.85
2019-03-19T18:51:47.830Z,9.75
2019-03-19T18:54:35.366Z,9.65
2019-03-19T18:57:23.293Z,9.58
2019-03-19T19:00:19.138Z,9.48
2019-03-19T19:03:06.749Z,9.46
2019-03-19T19:05:54.578Z,9.27
2019-03-19T19:08:41.793Z,9.15
2019-03-19T19:11:29.426Z,9.06
2019-03-19T19:14:17.052Z,8.87
2019-03-19T19:17:04.380Z,8.79
2019-03-19T19:19:51.900Z,8.68
2019-03-19T19:22:39.235Z,8.53
2019-03-19T19:25:27.297Z,8.35
2019-03-19T19:28:14.891Z,8.18
2019-03-19T19:31:02.626Z,8.08
2019-03-19T19:33:50.248Z,7.98
2019-03-19T19:36:37.476Z,7.95
2019-03-19T19:39:25.205Z,7.92
2019-03-19T19:42:12.527Z,7.87
2019-03-19T19:45:00.360Z,7.80
2019-03-19T19:47:48.101Z,7.76
2019-03-19T19:50:36.025Z,7.73
2019-03-19T19:53:23.657Z,7.64
2019-03-19T19:56:11.180Z,7.64
2019-03-19T19:58:58.296Z,7.57
2019-03-19T20:01:45.822Z,7.49
2019-03-19T20:04:33.251Z,7.36
2019-03-19T20:07:20.367Z,7.30
2019-03-19T20:10:14.048Z,7.27
2019-03-19T20:13:01.867Z,7.27
2019-03-19T20:15:49.702Z,7.21
2019-03-19T20:18:37.025Z,7.08
2019-03-19T20:21:24.243Z,7.04
2019-03-19T20:24:12.284Z,6.95
2019-03-19T20:27:00.013Z,6.89
2019-03-19T20:29:47.439Z,6.85
2019-03-19T20:32:35.079Z,6.82
2019-03-19T20:35:22.802Z,6.67
2019-03-19T20:38:10.324Z,6.55
2019-03-19T20:40:58.160Z,6.34
2019-03-19T20:43:45.591Z,6.33
2019-03-19T20:46:37.755Z,6.32
2019-03-19T20:49:25.248Z,6.35
2019-03-19T20:52:12.659Z,5.87
2019-03-19T20:55:00.358Z,5.97
2019-03-19T20:57:47.926Z,6.10
2019-03-19T21:00:35.279Z,6.20
2019-03-19T21:03:22.979Z,6.28
2019-03-19T21:06:10.617Z,6.30
2019-03-19T21:08:58.634Z,6.27
2019-03-19T21:11:45.969Z,6.16
2019-03-19T21:14:33.810Z,6.10
2019-03-19T21:17:21.230Z,6.09
2019-03-19T21:20:08.873Z,6.05
2019-03-19T21:23:11.380Z,6.03
2019-03-19T21:26:12.069Z,6.01
2019-03-19T21:29:14.242Z,6.00
2019-03-19T21:32:15.384Z,5.95
2019-03-19T21:35:13.568Z,5.95
2019-03-19T21:38:09.284Z,5.97
2019-03-19T21:40:56.811Z,5.88
2019-03-19T21:43:44.547Z,5.77
2019-03-19T21:46:31.965Z,5.75
2019-03-19T21:49:19.902Z,5.80
2019-03-19T21:52:07.332Z,5.82
2019-03-19T21:54:54.748Z,5.84
2019-03-19T21:57:41.965Z,5.76
2019-03-19T22:00:30.001Z,5.76
2019-03-19T22:03:17.529Z,5.71
2019-03-19T22:06:05.263Z,5.62
2019-03-19T22:08:52.481Z,5.55
2019-03-19T22:11:39.907Z,5.49
2019-03-19T22:14:27.539Z,5.45
2019-03-19T22:17:14.750Z,5.33
2019-03-19T22:20:02.381Z,5.15
2019-03-19T22:22:49.809Z,5.06
2019-03-19T22:25:37.328Z,5.02
2019-03-19T22:28:24.654Z,5.01
2019-03-19T22:31:12.385Z,5.00
2019-03-19T22:33:59.812Z,5.01
2019-03-19T22:36:47.032Z,5.06
2019-03-19T22:39:35.171Z,5.11
2019-03-19T22:42:23.309Z,5.11
2019-03-19T22:45:13.483Z,4.94
2019-03-19T22:48:02.070Z,4.80
2019-03-19T22:50:49.167Z,4.71
2019-03-19T22:53:36.496Z,4.72
2019-03-19T22:56:23.921Z,4.76
2019-03-19T22:59:11.848Z,4.76
2019-03-19T23:01:59.789Z,4.70
2019-03-19T23:04:48.549Z,4.75
2019-03-19T23:07:35.666Z,4.76
2019-03-19T23:10:22.931Z,4.76
2019-03-19T23:13:11.871Z,4.76
2019-03-19T23:15:59.264Z,4.75
2019-03-19T23:18:46.582Z,4.72
2019-03-19T23:21:34.516Z,4.63
2019-03-19T23:24:21.940Z,4.56
2019-03-19T23:27:09.160Z,4.52
2019-03-19T23:29:56.998Z,4.46
2019-03-19T23:32:45.135Z,4.42
2019-03-19T23:35:32.514Z,4.36
2019-03-19T23:38:21.122Z,4.39
2019-03-19T23:41:08.230Z,4.42
2019-03-19T23:43:55.477Z,4.36
2019-03-19T23:46:42.566Z,4.26
2019-03-19T23:49:29.909Z,4.19
2019-03-19T23:52:17.429Z,4.17
2019-03-19T23:55:07.175Z,4.21
2019-03-19T23:57:54.423Z,4.22
